Time;durP1;ratioP1;P1;durP2;ratioP2;P2;SDS_P1;SDS_P2;PMS_P1;PMS_P2;Temp;Humidity;BMP_temperature;BMP_pressure;BME280_temperature;BME280_humidity;BME280_pressure;Samples;Min_cycle;Max_cycle;Signal;HPM_P1;HPM_P2
2022/04/11 00:00:20;;;;;;;5.07;1.92;;;1.80;99.90;;;;;;4872521;29;20491;-87
2022/04/11 00:02:45;;;;;;;5.15;2.00;;;1.80;99.90;;;;;;4871681;29;20057;-87
2022/04/11 00:05:11;;;;;;;5.03;1.80;;;1.70;99.90;;;;;;4874758;29;20529;-87
2022/04/11 00:07:36;;;;;;;4.90;1.92;;;1.70;99.90;;;;;;4858808;29;20084;-87
2022/04/11 00:10:02;;;;;;;5.63;1.92;;;1.70;99.90;;;;;;4880961;29;20053;-87
2022/04/11 00:12:34;;;;;;;3.72;1.67;;;1.70;99.90;;;;;;4884476;29;20060;-87
2022/04/11 00:15:00;;;;;;;6.20;2.15;;;1.70;99.90;;;;;;4870426;29;20056;-87
2022/04/11 00:17:25;;;;;;;5.13;2.13;;;1.60;99.90;;;;;;4856053;29;20041;-87
2022/04/11 00:19:51;;;;;;;4.80;1.75;;;1.70;99.90;;;;;;4882666;29;20047;-87
2022/04/11 00:22:17;;;;;;;5.45;1.77;;;1.60;99.90;;;;;;4871669;29;20060;-87
2022/04/11 00:24:42;;;;;;;7.38;2.70;;;1.60;99.90;;;;;;4860198;29;20056;-87
2022/04/11 00:27:07;;;;;;;5.43;2.05;;;1.60;99.90;;;;;;4877933;29;20081;-87
2022/04/11 00:29:33;;;;;;;5.30;2.05;;;1.60;99.90;;;;;;4877896;29;20152;-87
2022/04/11 00:31:59;;;;;;;5.22;1.95;;;1.60;99.90;;;;;;4899575;29;20397;-87
2022/04/11 00:34:24;;;;;;;7.15;2.08;;;1.60;99.90;;;;;;4882026;29;20312;-87
2022/04/11 00:36:50;;;;;;;5.13;2.40;;;1.60;99.90;;;;;;4887258;29;20049;-87
2022/04/11 00:39:15;;;;;;;6.00;2.60;;;1.50;99.90;;;;;;4867068;29;20055;-87
2022/04/11 00:41:41;;;;;;;4.88;2.30;;;1.50;99.90;;;;;;4878889;29;20222;-87
2022/04/11 00:44:06;;;;;;;6.18;2.42;;;1.50;99.90;;;;;;4885396;29;20083;-87
2022/04/11 00:46:32;;;;;;;7.90;2.97;;;1.50;99.90;;;;;;4889479;29;20037;-87
2022/04/11 00:48:57;;;;;;;6.88;2.58;;;1.50;99.90;;;;;;4876430;29;20103;-87
2022/04/11 00:51:24;;;;;;;8.15;2.83;;;1.50;99.90;;;;;;4889372;29;20045;-86
2022/04/11 00:53:51;;;;;;;7.22;3.42;;;1.50;99.90;;;;;;4882365;29;20522;-87
2022/04/11 00:56:18;;;;;;;7.85;2.50;;;1.40;99.90;;;;;;4895431;29;20069;-87
2022/04/11 00:58:45;;;;;;;7.05;2.50;;;1.40;99.90;;;;;;4905393;29;20477;-87
2022/04/11 01:01:11;;;;;;;7.63;2.70;;;1.40;99.90;;;;;;4908385;29;20048;-87
2022/04/11 01:03:38;;;;;;;7.10;2.58;;;1.40;99.90;;;;;;4892587;29;20482;-87
2022/04/11 01:06:06;;;;;;;6.68;2.13;;;1.40;99.90;;;;;;4909123;29;20079;-87
2022/04/11 01:08:32;;;;;;;8.52;2.53;;;1.30;99.90;;;;;;4899402;29;20087;-87
2022/04/11 01:10:58;;;;;;;7.72;3.03;;;1.40;99.90;;;;;;4897399;29;20409;-87
2022/04/11 01:13:24;;;;;;;6.90;2.50;;;1.30;99.90;;;;;;4888814;29;20557;-87
2022/04/11 01:15:58;;;;;;;7.20;2.35;;;1.30;99.90;;;;;;4878172;29;20083;-87
2022/04/11 01:18:24;;;;;;;6.50;2.40;;;1.20;99.90;;;;;;4883754;29;20075;-87
2022/04/11 01:20:50;;;;;;;6.07;2.42;;;1.20;99.90;;;;;;4905726;29;20390;-87
2022/04/11 01:23:16;;;;;;;6.32;2.45;;;1.20;99.90;;;;;;4881955;29;20195;-87
2022/04/11 01:25:42;;;;;;;5.78;2.45;;;1.20;99.90;;;;;;4907112;29;20036;-87
2022/04/11 01:28:09;;;;;;;8.93;2.33;;;1.10;99.90;;;;;;4906479;29;20502;-87
2022/04/11 01:30:34;;;;;;;6.82;2.65;;;1.10;99.90;;;;;;4900575;29;20427;-87
2022/04/11 01:33:00;;;;;;;8.40;2.67;;;1.10;99.90;;;;;;4899756;29;20165;-87
2022/04/11 01:35:27;;;;;;;6.57;2.67;;;1.10;99.90;;;;;;4898689;29;20398;-87
2022/04/11 01:37:53;;;;;;;8.23;2.47;;;1.10;99.90;;;;;;4882690;29;20045;-87
2022/04/11 01:40:20;;;;;;;6.65;2.60;;;1.10;99.90;;;;;;4907573;29;20054;-87
2022/04/11 01:42:46;;;;;;;7.80;2.47;;;1.00;99.90;;;;;;4874982;29;20568;-87
2022/04/11 01:45:13;;;;;;;6.63;2.22;;;1.00;99.90;;;;;;4906016;29;20051;-88
2022/04/11 01:47:40;;;;;;;4.78;2.13;;;1.00;99.90;;;;;;4873972;29;20148;-87
2022/04/11 01:50:07;;;;;;;6.85;2.70;;;1.00;99.90;;;;;;4890548;29;20072;-87
2022/04/11 01:52:33;;;;;;;7.15;2.50;;;1.00;99.90;;;;;;4892275;29;20841;-87
2022/04/11 01:55:03;;;;;;;5.40;2.22;;;0.90;99.90;;;;;;4891684;29;20139;-87
2022/04/11 01:57:30;;;;;;;5.93;2.65;;;0.90;99.90;;;;;;4905793;29;20380;-87
2022/04/11 01:59:55;;;;;;;6.40;2.70;;;1.00;99.90;;;;;;4891482;29;20376;-87
2022/04/11 02:02:21;;;;;;;5.97;2.40;;;0.90;99.90;;;;;;4890566;29;20059;-87
2022/04/11 02:04:47;;;;;;;6.55;2.63;;;0.90;99.90;;;;;;4891806;29;20067;-87
2022/04/11 02:07:12;;;;;;;10.35;3.00;;;0.90;99.90;;;;;;4889949;29;20514;-87
2022/04/11 02:09:38;;;;;;;7.22;2.83;;;1.00;99.90;;;;;;4890992;29;20048;-87
2022/04/11 02:12:04;;;;;;;6.35;2.90;;;0.90;99.90;;;;;;4890355;29;20605;-87
2022/04/11 02:14:29;;;;;;;6.45;2.50;;;0.90;99.90;;;;;;4874837;29;20398;-87
2022/04/11 02:16:55;;;;;;;6.90;2.50;;;1.00;99.90;;;;;;4876200;29;20171;-87
2022/04/11 02:19:20;;;;;;;7.82;2.70;;;1.00;99.90;;;;;;4884885;29;20487;-87
2022/04/11 02:21:46;;;;;;;7.22;2.58;;;0.90;99.90;;;;;;4865318;29;20056;-87
2022/04/11 02:24:11;;;;;;;6.22;2.25;;;1.00;99.90;;;;;;4890446;29;20056;-87
2022/04/11 02:26:37;;;;;;;6.05;2.65;;;0.90;99.90;;;;;;4905496;29;20056;-87
2022/04/11 02:29:03;;;;;;;6.13;2.30;;;0.90;99.90;;;;;;4890524;29;20045;-86
2022/04/11 02:31:28;;;;;;;7.75;2.67;;;1.00;99.90;;;;;;4894550;29;20123;-87
2022/04/11 02:33:54;;;;;;;7.82;2.90;;;1.00;99.90;;;;;;4890893;29;20086;-86
2022/04/11 02:36:19;;;;;;;6.18;2.25;;;1.00;99.90;;;;;;4873521;29;20053;-87
2022/04/11 02:38:45;;;;;;;6.07;2.03;;;1.00;99.90;;;;;;4890939;29;20104;-87
2022/04/11 02:41:10;;;;;;;7.70;2.70;;;1.00;99.90;;;;;;4904232;29;20451;-86
2022/04/11 02:43:36;;;;;;;6.10;2.53;;;1.00;99.90;;;;;;4889525;29;20060;-86
2022/04/11 02:46:02;;;;;;;8.50;3.53;;;1.00;99.90;;;;;;4896003;29;20036;-87
2022/04/11 02:48:27;;;;;;;7.75;2.75;;;1.00;99.90;;;;;;4889131;29;20099;-87
2022/04/11 02:50:53;;;;;;;7.47;2.58;;;1.00;99.90;;;;;;4891318;29;20481;-87
2022/04/11 02:53:19;;;;;;;6.10;2.53;;;1.00;99.90;;;;;;4890682;29;20379;-87
2022/04/11 02:55:44;;;;;;;6.00;2.33;;;0.90;99.90;;;;;;4874678;29;20051;-87
2022/04/11 02:58:10;;;;;;;6.45;1.98;;;0.90;99.90;;;;;;4877743;29;20040;-87
2022/04/11 03:00:35;;;;;;;5.47;2.15;;;0.90;99.90;;;;;;4902240;29;20048;-87
2022/04/11 03:03:01;;;;;;;5.70;1.98;;;0.90;99.90;;;;;;4881008;29;20139;-87
2022/04/11 03:05:26;;;;;;;6.25;2.35;;;0.90;99.90;;;;;;4894200;29;20079;-87
2022/04/11 03:07:52;;;;;;;6.32;1.88;;;0.90;99.90;;;;;;4905520;29;20043;-87
2022/04/11 03:10:19;;;;;;;6.97;2.05;;;0.80;99.90;;;;;;4889575;29;20053;-87
2022/04/11 03:12:44;;;;;;;5.35;2.10;;;0.80;99.90;;;;;;4896701;29;20045;-87
2022/04/11 03:15:10;;;;;;;5.18;1.92;;;0.80;99.90;;;;;;4890302;29;20066;-86
2022/04/11 03:17:36;;;;;;;6.30;2.30;;;0.80;99.90;;;;;;4892497;29;20044;-87
2022/04/11 03:20:01;;;;;;;6.30;1.90;;;0.80;99.90;;;;;;4882599;29;20040;-86
2022/04/11 03:22:27;;;;;;;5.22;2.00;;;0.70;99.90;;;;;;4910443;29;20084;-87
2022/04/11 03:24:52;;;;;;;5.85;1.77;;;0.70;99.90;;;;;;4906080;29;20497;-87
2022/04/11 03:27:18;;;;;;;6.35;2.03;;;0.70;99.90;;;;;;4887111;29;20538;-87
2022/04/11 03:29:43;;;;;;;7.07;2.17;;;0.70;99.90;;;;;;4885392;29;20204;-86
2022/04/11 03:32:09;;;;;;;6.88;2.15;;;0.70;99.90;;;;;;4890558;29;20435;-87
2022/04/11 03:34:34;;;;;;;4.78;2.10;;;0.70;99.90;;;;;;4905737;29;20499;-87
2022/04/11 03:37:00;;;;;;;6.50;2.33;;;0.70;99.90;;;;;;4909780;29;20441;-87
2022/04/11 03:39:26;;;;;;;8.75;2.28;;;0.70;99.90;;;;;;4905512;29;20048;-86
2022/04/11 03:41:51;;;;;;;6.75;2.08;;;0.70;99.90;;;;;;4906383;29;20048;-87
2022/04/11 03:44:17;;;;;;;4.82;1.98;;;0.70;99.90;;;;;;4903629;29;20104;-87
2022/04/11 03:46:42;;;;;;;5.18;1.95;;;0.70;99.90;;;;;;4889527;29;20083;-87
2022/04/11 03:49:08;;;;;;;6.90;2.30;;;0.70;99.90;;;;;;4891412;29;20044;-87
2022/04/11 03:51:33;;;;;;;7.65;2.15;;;0.80;99.90;;;;;;4904951;29;20048;-86
2022/04/11 03:53:59;;;;;;;5.53;2.03;;;0.80;99.90;;;;;;4895292;29;20158;-87
2022/04/11 03:56:25;;;;;;;6.55;2.10;;;0.90;99.90;;;;;;4902989;29;20048;-87
2022/04/11 03:58:50;;;;;;;6.28;2.10;;;0.90;99.90;;;;;;4910133;29;20542;-87
2022/04/11 04:01:16;;;;;;;6.32;2.03;;;0.90;99.90;;;;;;4910153;29;20047;-86
2022/04/11 04:03:42;;;;;;;5.43;2.08;;;1.00;99.90;;;;;;4914568;29;20055;-87
2022/04/11 04:06:07;;;;;;;5.88;2.00;;;1.00;99.90;;;;;;4896995;29;20048;-86
2022/04/11 04:08:33;;;;;;;6.93;2.97;;;1.00;99.90;;;;;;4905500;29;20754;-87
2022/04/11 04:10:59;;;;;;;5.45;2.30;;;1.10;99.90;;;;;;4910062;29;20415;-87
2022/04/11 04:13:24;;;;;;;5.25;1.88;;;1.10;99.90;;;;;;4897475;29;20156;-87
2022/04/11 04:15:50;;;;;;;6.00;2.17;;;1.10;99.90;;;;;;4899802;29;20051;-86
2022/04/11 04:18:16;;;;;;;5.68;2.10;;;1.10;99.90;;;;;;4889118;29;20044;-86
2022/04/11 04:20:42;;;;;;;6.07;2.13;;;1.20;99.90;;;;;;4911324;29;20045;-86
2022/04/11 04:23:08;;;;;;;5.55;2.00;;;1.20;99.90;;;;;;4882048;29;20542;-87
2022/04/11 04:25:34;;;;;;;4.95;2.17;;;1.20;99.90;;;;;;4883576;29;20052;-87
2022/04/11 04:28:00;;;;;;;5.20;2.13;;;1.20;99.90;;;;;;4887533;29;20139;-87
2022/04/11 04:30:28;;;;;;;5.32;2.03;;;1.20;99.90;;;;;;4877359;29;20363;-86
2022/04/11 04:32:57;;;;;;;6.03;2.08;;;1.30;99.90;;;;;;4894395;29;20411;-87
2022/04/11 04:35:23;;;;;;;6.63;3.60;;;1.30;99.90;;;;;;4904479;29;20033;-87
2022/04/11 04:37:48;;;;;;;6.78;2.25;;;1.30;99.90;;;;;;4901995;29;20471;-87
2022/04/11 04:40:14;;;;;;;5.82;2.65;;;1.40;99.90;;;;;;4896875;29;20049;-87
2022/04/11 04:42:40;;;;;;;5.85;1.95;;;1.40;99.90;;;;;;4881825;29;20061;-86
2022/04/11 04:45:07;;;;;;;7.88;2.45;;;1.40;99.90;;;;;;4906898;29;20048;-87
2022/04/11 04:47:33;;;;;;;7.53;2.63;;;1.50;99.90;;;;;;4896668;29;20052;-87
2022/04/11 04:49:58;;;;;;;6.65;2.25;;;1.50;99.90;;;;;;4904657;29;20052;-86
2022/04/11 04:52:24;;;;;;;5.60;2.28;;;1.50;99.90;;;;;;4901299;29;20413;-87
2022/04/11 04:54:49;;;;;;;5.97;2.25;;;1.60;99.90;;;;;;4903490;29;20038;-86
2022/04/11 04:57:15;;;;;;;8.35;2.17;;;1.60;99.90;;;;;;4892354;29;20373;-87
2022/04/11 04:59:41;;;;;;;9.63;2.60;;;1.70;99.90;;;;;;4898650;29;20036;-87
2022/04/11 05:02:06;;;;;;;6.05;2.40;;;1.70;99.90;;;;;;4877174;29;20373;-87
2022/04/11 05:04:32;;;;;;;7.07;2.58;;;1.70;99.90;;;;;;4918515;29;20051;-87
2022/04/11 05:06:57;;;;;;;5.18;2.08;;;1.70;99.90;;;;;;4876694;29;20414;-87
2022/04/11 05:09:23;;;;;;;6.53;2.38;;;1.80;99.90;;;;;;4912815;29;20044;-87
2022/04/11 05:11:48;;;;;;;6.50;2.80;;;1.80;99.90;;;;;;4892485;29;20055;-86
2022/04/11 05:14:14;;;;;;;7.10;2.72;;;1.80;99.90;;;;;;4882199;29;20053;-87
2022/04/11 05:16:40;;;;;;;6.85;2.80;;;1.80;99.90;;;;;;4881495;29;20048;-87
2022/04/11 05:19:05;;;;;;;7.00;2.28;;;1.90;99.90;;;;;;4897581;29;20092;-87
2022/04/11 05:21:31;;;;;;;7.50;2.47;;;1.90;99.90;;;;;;4892338;29;20144;-87
2022/04/11 05:23:56;;;;;;;7.05;2.70;;;2.00;99.90;;;;;;4891576;29;20387;-87
2022/04/11 05:26:22;;;;;;;7.50;2.55;;;2.00;99.90;;;;;;4884857;29;20063;-87
2022/04/11 05:28:51;;;;;;;7.55;2.75;;;2.00;99.90;;;;;;4883234;29;20047;-90
2022/04/11 05:31:17;;;;;;;6.60;2.45;;;2.10;99.90;;;;;;4899214;29;20095;-89
2022/04/11 05:33:44;;;;;;;5.28;2.15;;;2.10;99.90;;;;;;4892602;29;20055;-88
2022/04/11 05:36:09;;;;;;;8.63;2.50;;;2.10;99.90;;;;;;4896921;29;20602;-88
2022/04/11 05:38:35;;;;;;;7.35;2.67;;;2.20;99.90;;;;;;4890848;29;20072;-89
2022/04/11 05:41:01;;;;;;;5.38;2.42;;;2.20;99.90;;;;;;4909370;29;20430;-90
2022/04/11 05:43:26;;;;;;;5.72;2.50;;;2.20;99.90;;;;;;4887571;29;20426;-89
2022/04/11 05:45:52;;;;;;;5.07;2.00;;;2.30;99.90;;;;;;4893865;29;20055;-89
2022/04/11 05:48:17;;;;;;;6.68;2.60;;;2.30;99.90;;;;;;4894135;29;20045;-90
2022/04/11 05:50:43;;;;;;;6.30;2.58;;;2.30;99.90;;;;;;4910752;29;20055;-89
2022/04/11 05:53:08;;;;;;;8.45;3.05;;;2.40;99.90;;;;;;4906602;29;20045;-89
2022/04/11 05:55:34;;;;;;;7.05;2.70;;;2.40;99.90;;;;;;4880634;29;20108;-90
2022/04/11 05:58:00;;;;;;;6.60;2.63;;;2.50;99.90;;;;;;4894685;29;20879;-90
2022/04/11 06:00:26;;;;;;;8.25;2.88;;;2.50;99.90;;;;;;4908007;29;20055;-92
2022/04/11 06:02:52;;;;;;;6.93;2.67;;;2.50;99.90;;;;;;4879972;29;20071;-91
2022/04/11 06:05:17;;;;;;;5.65;2.47;;;2.60;99.90;;;;;;4904519;29;20036;-91
2022/04/11 06:07:43;;;;;;;7.57;2.95;;;2.60;99.90;;;;;;4885669;29;20048;-91
2022/04/11 06:10:09;;;;;;;7.45;3.25;;;2.70;99.90;;;;;;4888753;29;20477;-91
2022/04/11 06:12:35;;;;;;;7.95;3.35;;;2.70;99.90;;;;;;4884175;29;20087;-91
2022/04/11 06:15:01;;;;;;;9.43;3.25;;;2.80;99.90;;;;;;4907653;29;20047;-89
2022/04/11 06:17:27;;;;;;;8.93;3.47;;;2.80;99.90;;;;;;4883142;29;20044;-92
2022/04/11 06:19:54;;;;;;;6.75;2.97;;;2.90;99.90;;;;;;4922287;29;21444;-91
2022/04/11 06:22:20;;;;;;;7.32;3.40;;;3.00;99.90;;;;;;4921166;29;20022;-91
2022/04/11 06:24:47;;;;;;;10.00;4.28;;;3.10;99.90;;;;;;4909738;29;20050;-91
2022/04/11 06:27:13;;;;;;;8.07;3.70;;;3.20;99.90;;;;;;4910801;29;20045;-92
2022/04/11 06:29:38;;;;;;;8.43;3.97;;;3.30;99.90;;;;;;4889559;29;20052;-91
2022/04/11 06:32:05;;;;;;;7.82;3.80;;;3.40;99.90;;;;;;4899642;29;20379;-91
2022/04/11 06:34:35;;;;;;;9.55;3.80;;;3.50;99.90;;;;;;4877537;29;20048;-91
2022/04/11 06:37:01;;;;;;;9.93;4.68;;;3.60;99.90;;;;;;4921247;29;20052;-92
2022/04/11 06:39:27;;;;;;;10.20;4.35;;;3.70;99.90;;;;;;4908423;29;20064;-93
2022/04/11 06:41:53;;;;;;;8.32;3.80;;;3.80;99.90;;;;;;4888290;29;20051;-91
2022/04/11 06:44:19;;;;;;;8.55;4.13;;;3.80;99.90;;;;;;4901470;29;20067;-91
2022/04/11 06:46:44;;;;;;;8.20;3.97;;;3.90;99.90;;;;;;4887390;29;20534;-93
2022/04/11 06:49:10;;;;;;;9.82;4.05;;;4.00;99.90;;;;;;4887193;29;20044;-91
2022/04/11 06:51:35;;;;;;;9.23;4.72;;;4.10;99.90;;;;;;4882506;29;20383;-91
2022/04/11 06:54:01;;;;;;;9.65;4.30;;;4.20;99.90;;;;;;4897098;29;20070;-91
2022/04/11 06:56:27;;;;;;;8.00;4.30;;;4.20;99.90;;;;;;4880042;29;20410;-90
2022/04/11 06:58:53;;;;;;;8.48;4.20;;;4.30;99.90;;;;;;4876809;29;20048;-90
2022/04/11 07:01:18;;;;;;;10.10;4.57;;;4.40;99.90;;;;;;4890177;29;20044;-90
2022/04/11 07:03:44;;;;;;;9.82;4.40;;;4.50;99.90;;;;;;4885328;29;20052;-91
2022/04/11 07:06:10;;;;;;;8.80;3.85;;;4.60;99.90;;;;;;4894594;29;20375;-91
2022/04/11 07:08:36;;;;;;;9.27;4.60;;;4.70;99.90;;;;;;4907065;29;20348;-90
2022/04/11 07:11:02;;;;;;;11.95;4.70;;;4.80;99.90;;;;;;4878085;29;20052;-91
2022/04/11 07:13:28;;;;;;;11.10;4.97;;;4.80;99.90;;;;;;4882007;29;20048;-90
2022/04/11 07:15:54;;;;;;;10.05;4.97;;;4.90;99.90;;;;;;4902427;29;20051;-93
2022/04/11 07:18:19;;;;;;;9.20;4.65;;;4.90;99.90;;;;;;4893956;29;20134;-89
2022/04/11 07:20:48;;;;;;;8.73;4.68;;;5.00;99.90;;;;;;4905930;29;20096;-88
2022/04/11 07:23:13;;;;;;;9.77;4.43;;;5.10;99.90;;;;;;4898253;29;20040;-89
2022/04/11 07:25:39;;;;;;;10.30;4.75;;;5.20;99.90;;;;;;4863432;29;20071;-89
2022/04/11 07:28:08;;;;;;;11.55;5.32;;;5.30;99.90;;;;;;4902894;29;20040;-89
2022/04/11 07:30:33;;;;;;;8.95;4.53;;;5.30;99.90;;;;;;4876805;29;20059;-89
2022/04/11 07:32:59;;;;;;;11.93;5.10;;;5.50;99.90;;;;;;4905303;29;20490;-88
2022/04/11 07:35:24;;;;;;;7.47;4.88;;;5.50;99.90;;;;;;4881113;29;20401;-89
2022/04/11 07:37:50;;;;;;;8.45;5.10;;;5.60;99.90;;;;;;4905364;29;20530;-89
2022/04/11 07:40:15;;;;;;;9.48;5.07;;;5.70;99.90;;;;;;4905224;29;20612;-90
2022/04/11 07:42:41;;;;;;;10.80;5.75;;;5.80;99.90;;;;;;4891662;29;20536;-89
2022/04/11 07:45:08;;;;;;;9.73;4.72;;;5.90;99.90;;;;;;4901879;29;20104;-90
2022/04/11 07:47:33;;;;;;;9.35;5.88;;;6.00;99.90;;;;;;4886242;29;20047;-89
2022/04/11 07:49:59;;;;;;;10.75;5.72;;;6.20;99.90;;;;;;4892570;29;20040;-89
2022/04/11 07:52:25;;;;;;;10.63;6.38;;;6.30;99.90;;;;;;4907573;29;20466;-90
2022/04/11 07:54:51;;;;;;;9.70;5.30;;;6.40;99.90;;;;;;4907312;29;20394;-89
2022/04/11 07:57:17;;;;;;;10.73;5.63;;;6.60;99.90;;;;;;4892130;29;20054;-90
2022/04/11 07:59:43;;;;;;;12.23;5.95;;;6.70;99.90;;;;;;4895677;29;20142;-89
2022/04/11 08:02:08;;;;;;;9.70;6.32;;;6.80;99.90;;;;;;4884817;29;20048;-90
2022/04/11 08:04:34;;;;;;;9.45;5.90;;;6.90;99.90;;;;;;4905957;29;20426;-92
2022/04/11 08:07:02;;;;;;;9.75;6.63;;;7.10;99.90;;;;;;4906583;29;20036;-89
2022/04/11 08:09:27;;;;;;;9.70;6.40;;;7.30;99.90;;;;;;4904009;29;20124;-92
2022/04/11 08:11:53;;;;;;;10.77;6.78;;;7.30;99.90;;;;;;4891853;29;20139;-88
2022/04/11 08:14:19;;;;;;;10.07;6.97;;;7.40;99.90;;;;;;4901480;29;20048;-88
2022/04/11 08:16:44;;;;;;;11.10;6.82;;;7.60;99.90;;;;;;4901758;29;20044;-88
2022/04/11 08:19:10;;;;;;;10.63;6.93;;;7.70;99.90;;;;;;4905678;29;20076;-88
2022/04/11 08:21:37;;;;;;;9.15;5.97;;;7.80;99.90;;;;;;4909088;29;20074;-89
2022/04/11 08:24:03;;;;;;;10.27;7.00;;;8.00;99.90;;;;;;4899489;29;20189;-89
2022/04/11 08:26:29;;;;;;;10.18;7.00;;;8.10;99.90;;;;;;4894225;29;20394;-88
2022/04/11 08:28:54;;;;;;;9.98;6.10;;;8.20;99.90;;;;;;4922513;29;20052;-88
2022/04/11 08:31:20;;;;;;;9.25;6.50;;;8.30;99.90;;;;;;4892122;29;20040;-89
2022/04/11 08:33:46;;;;;;;9.48;6.75;;;8.30;99.90;;;;;;4901919;29;20080;-89
2022/04/11 08:36:12;;;;;;;9.52;6.35;;;8.40;99.90;;;;;;4878264;29;20130;-89
2022/04/11 08:38:37;;;;;;;9.55;6.28;;;8.50;99.90;;;;;;4901040;29;20079;-88
2022/04/11 08:41:03;;;;;;;10.27;6.70;;;8.60;99.90;;;;;;4921706;29;20060;-88
2022/04/11 08:43:31;;;;;;;9.68;6.70;;;8.70;99.90;;;;;;4909165;29;20127;-89
2022/04/11 08:46:01;;;;;;;9.65;6.35;;;8.80;99.90;;;;;;4921929;29;20040;-89
2022/04/11 08:48:26;;;;;;;11.20;6.70;;;8.90;99.90;;;;;;4918832;29;20051;-88
2022/04/11 08:50:52;;;;;;;10.07;5.90;;;9.00;99.90;;;;;;4894516;29;20166;-88
2022/04/11 08:53:22;;;;;;;10.63;5.70;;;9.20;99.90;;;;;;4886126;29;20041;-88
2022/04/11 08:55:51;;;;;;;10.27;6.45;;;9.30;99.90;;;;;;4902469;29;20059;-88
2022/04/11 08:58:17;;;;;;;10.98;5.80;;;9.40;99.90;;;;;;4879392;29;20061;-88
2022/04/11 09:00:43;;;;;;;9.50;5.18;;;9.50;99.90;;;;;;4906061;29;20123;-88
2022/04/11 09:03:09;;;;;;;9.38;5.20;;;9.50;99.90;;;;;;4903347;29;20136;-89
2022/04/11 09:05:34;;;;;;;9.43;5.32;;;9.50;99.90;;;;;;4901677;29;20048;-88
2022/04/11 09:08:00;;;;;;;8.43;5.00;;;9.50;99.90;;;;;;4890851;29;20040;-88
2022/04/11 09:10:32;;;;;;;8.77;4.65;;;9.60;99.90;;;;;;4909282;29;20051;-88
2022/04/11 09:12:59;;;;;;;8.82;4.93;;;9.70;99.90;;;;;;4894543;29;20387;-90
2022/04/11 09:15:26;;;;;;;10.43;4.90;;;9.80;99.90;;;;;;4884968;29;20059;-89
2022/04/11 09:17:54;;;;;;;10.05;4.88;;;9.80;99.90;;;;;;4891110;29;20052;-88
2022/04/11 09:20:23;;;;;;;8.80;4.25;;;9.90;99.90;;;;;;4909014;29;20044;-88
2022/04/11 09:22:49;;;;;;;8.60;4.32;;;10.00;99.90;;;;;;4886392;29;20156;-88
2022/04/11 09:25:20;;;;;;;9.23;4.25;;;10.10;99.90;;;;;;4905863;29;20056;-88
2022/04/11 09:27:46;;;;;;;7.00;3.50;;;10.20;99.90;;;;;;4896251;29;20131;-88
2022/04/11 09:30:20;;;;;;;9.68;3.90;;;10.30;99.90;;;;;;4911183;29;20538;-88
2022/04/11 09:32:56;;;;;;;8.85;3.72;;;10.40;99.90;;;;;;4886916;29;20498;-88
2022/04/11 09:35:23;;;;;;;8.30;3.10;;;10.50;99.90;;;;;;4885236;29;20052;-88
2022/04/11 09:38:09;;;;;;;11.35;3.47;;;10.60;99.90;;;;;;4915036;29;20052;-88
2022/04/11 09:40:49;;;;;;;8.90;3.58;;;10.60;99.90;;;;;;4902436;29;20413;-89
2022/04/11 09:43:23;;;;;;;6.53;3.05;;;10.70;99.90;;;;;;4908216;29;20498;-88
2022/04/11 09:45:51;;;;;;;7.30;2.75;;;10.70;99.90;;;;;;4899448;29;20163;-88
2022/04/11 09:48:24;;;;;;;5.90;2.60;;;10.80;97.80;;;;;;4899408;29;20057;-87
2022/04/11 09:50:50;;;;;;;7.00;3.38;;;10.90;93.60;;;;;;4905727;29;20055;-89
2022/04/11 09:53:21;;;;;;;7.38;2.90;;;10.90;90.90;;;;;;4882473;29;20048;-87
2022/04/11 09:55:48;;;;;;;;;;;11.00;92.20;;;;;;4886833;29;20044;-88
2022/04/11 09:58:14;;;;;;;7.85;3.30;;;10.90;89.30;;;;;;4908177;29;19973;-88
2022/04/11 10:00:42;;;;;;;9.27;3.60;;;11.00;89.80;;;;;;4884573;29;20677;-88
2022/04/11 10:03:08;;;;;;;7.00;3.45;;;11.10;89.10;;;;;;4898967;29;20043;-88
2022/04/11 10:05:39;;;;;;;7.85;4.15;;;11.20;90.10;;;;;;4886028;29;20103;-88
2022/04/11 10:08:09;;;;;;;9.65;4.85;;;11.30;89.90;;;;;;4879520;29;20131;-89
2022/04/11 10:10:38;;;;;;;8.60;4.90;;;11.30;81.10;;;;;;4880921;29;21109;-88
2022/04/11 10:13:10;;;;;;;9.82;4.85;;;11.30;82.00;;;;;;4886470;29;20383;-88
2022/04/11 10:15:39;;;;;;;9.88;4.60;;;11.40;84.10;;;;;;4861727;29;20131;-90
2022/04/11 10:18:07;;;;;;;8.82;4.97;;;11.60;88.20;;;;;;4920202;29;21219;-89
2022/04/11 10:20:38;;;;;;;11.35;5.78;;;11.60;82.60;;;;;;4878587;29;20044;-88
2022/04/11 10:23:31;;;;;;;10.23;5.18;;;11.60;73.60;;;;;;4890910;29;20055;-89
2022/04/11 10:25:59;;;;;;;10.43;5.35;;;11.70;70.60;;;;;;4867494;29;20052;-88
2022/04/11 10:28:29;;;;;;;11.25;6.32;;;11.80;69.80;;;;;;4893765;29;20071;-89
2022/04/11 10:31:10;;;;;;;9.52;5.68;;;11.80;70.00;;;;;;4893223;29;20078;-88
2022/04/11 10:33:47;;;;;;;9.35;5.90;;;11.90;73.90;;;;;;4884714;29;20052;-88
2022/04/11 10:36:31;;;;;;;10.45;6.35;;;12.00;72.50;;;;;;4917519;29;20091;-89
2022/04/11 10:39:15;;;;;;;9.65;6.32;;;12.10;67.00;;;;;;4906094;29;20060;-89
2022/04/11 10:41:56;;;;;;;9.27;6.32;;;12.20;67.30;;;;;;4880275;29;20500;-88
2022/04/11 10:44:33;;;;;;;9.70;5.88;;;12.20;69.20;;;;;;4904138;29;20059;-89
2022/04/11 10:47:08;;;;;;;10.50;6.47;;;12.20;67.10;;;;;;4883628;29;20489;-89
2022/04/11 10:49:53;;;;;;;11.38;6.78;;;12.20;66.40;;;;;;4908081;29;20056;-88
2022/04/11 10:52:41;;;;;;;12.23;6.80;;;12.10;64.40;;;;;;4882405;29;20472;-90
2022/04/11 10:55:12;;;;;;;11.40;7.32;;;12.20;65.60;;;;;;4913654;29;20803;-90
2022/04/11 10:57:42;;;;;;;9.38;6.53;;;12.20;67.40;;;;;;4901648;29;20089;-89
2022/04/11 11:00:09;;;;;;;11.48;7.07;;;12.20;67.90;;;;;;4882376;29;20053;-89
2022/04/11 11:02:53;;;;;;;10.15;7.40;;;12.40;69.90;;;;;;4927690;29;20044;-89
2022/04/11 11:05:27;;;;;;;12.18;7.95;;;12.40;65.80;;;;;;4899484;29;20108;-89
2022/04/11 11:08:11;;;;;;;11.02;7.78;;;12.50;66.60;;;;;;4887834;29;20052;-90
2022/04/11 11:10:46;;;;;;;12.32;7.57;;;12.60;64.40;;;;;;4906425;29;20096;-89
2022/04/11 11:13:41;;;;;;;10.15;6.97;;;12.60;64.30;;;;;;4893331;29;20044;-88
2022/04/11 11:16:07;;;;;;;11.90;8.07;;;12.70;66.70;;;;;;4905331;29;20051;-89
2022/04/11 11:18:54;;;;;;;9.73;7.40;;;12.70;63.60;;;;;;4876751;29;20048;-90
2022/04/11 11:21:47;;;;;;;11.32;7.63;;;12.80;66.60;;;;;;4890402;29;20101;-90
2022/04/11 11:24:14;;;;;;;12.00;8.38;;;12.90;67.30;;;;;;4889057;29;20131;-90
2022/04/11 11:26:54;;;;;;;11.65;7.93;;;13.00;68.00;;;;;;4888083;29;20068;-90
2022/04/11 11:29:34;;;;;;;12.80;7.55;;;13.10;66.30;;;;;;4882133;29;20072;-92
2022/04/11 11:32:08;;;;;;;12.02;7.85;;;13.10;62.40;;;;;;4904183;29;20103;-89
2022/04/11 11:34:36;;;;;;;11.45;8.48;;;13.20;66.00;;;;;;4901199;29;20503;-89
2022/04/11 11:37:10;;;;;;;11.40;8.57;;;13.20;65.10;;;;;;4901946;29;20198;-89
2022/04/11 11:39:38;;;;;;;11.80;8.10;;;13.30;61.70;;;;;;4889593;29;20131;-89
2022/04/11 11:42:06;;;;;;;11.80;8.40;;;13.30;63.70;;;;;;4917548;29;20052;-91
2022/04/11 11:44:40;;;;;;;11.80;8.48;;;13.30;63.40;;;;;;4879124;29;20052;-90
2022/04/11 11:47:06;;;;;;;11.68;8.30;;;13.30;61.40;;;;;;4888613;29;20085;-89
2022/04/11 11:49:47;;;;;;;11.98;8.23;;;13.30;60.80;;;;;;4882860;29;20057;-90
2022/04/11 11:52:20;;;;;;;11.93;8.63;;;13.30;61.00;;;;;;4885798;29;20152;-89
2022/04/11 11:54:48;;;;;;;11.65;8.70;;;13.40;62.60;;;;;;4890756;29;20051;-91
2022/04/11 11:57:19;;;;;;;13.80;9.13;;;13.50;62.60;;;;;;4897002;29;20323;-90
2022/04/11 11:59:55;;;;;;;11.95;7.65;;;13.60;63.50;;;;;;4890475;29;20500;-90
2022/04/11 12:05:30;;;;;;;11.80;8.10;;;13.90;62.70;;;;;;4896450;29;20421;-90
2022/04/11 12:08:02;;;;;;;11.85;7.88;;;14.00;59.90;;;;;;4877992;29;20119;-93
2022/04/11 12:10:28;;;;;;;12.27;8.43;;;14.00;60.80;;;;;;4900656;29;20067;-89
2022/04/11 12:12:54;;;;;;;11.88;8.10;;;14.00;60.10;;;;;;4876969;29;20079;-91
2022/04/11 12:15:20;;;;;;;11.63;7.97;;;14.00;60.70;;;;;;4902113;29;20040;-90
2022/04/11 12:17:47;;;;;;;11.48;8.20;;;14.10;59.90;;;;;;4900226;29;20059;-90
2022/04/11 12:20:17;;;;;;;11.75;8.95;;;14.10;60.40;;;;;;4898983;29;20139;-90
2022/04/11 12:23:07;;;;;;;12.77;8.32;;;14.10;59.20;;;;;;4906085;29;20051;-90
2022/04/11 12:25:41;;;;;;;11.07;7.80;;;14.10;60.50;;;;;;4890810;29;20048;-90
2022/04/11 12:28:24;;;;;;;11.38;7.13;;;14.10;58.60;;;;;;4904515;29;20091;-89
2022/04/11 12:31:07;;;;;;;12.18;8.63;;;14.10;58.20;;;;;;4881084;29;20073;-90
2022/04/11 12:33:42;;;;;;;11.45;8.27;;;14.10;59.60;;;;;;4882829;29;20052;-90
2022/04/11 12:36:13;;;;;;;12.15;8.32;;;14.10;60.60;;;;;;4889945;29;20317;-91
2022/04/11 12:38:50;;;;;;;12.65;9.23;;;14.10;60.90;;;;;;4907925;29;20048;-90
2022/04/11 12:41:28;;;;;;;11.65;9.05;;;14.10;58.10;;;;;;4900478;29;20417;-90
2022/04/11 12:44:03;;;;;;;13.00;9.40;;;14.10;60.30;;;;;;4881519;29;20852;-90
2022/04/11 12:46:29;;;;;;;10.88;8.43;;;14.10;59.60;;;;;;4901551;29;20451;-91
2022/04/11 12:48:58;;;;;;;12.25;8.30;;;14.10;59.00;;;;;;4895141;29;20088;-88
2022/04/11 12:51:28;;;;;;;12.07;8.80;;;14.20;59.10;;;;;;4893072;29;20061;-90
2022/04/11 12:54:06;;;;;;;11.93;8.40;;;14.20;59.00;;;;;;4912375;29;20083;-90
2022/04/11 12:56:51;;;;;;;11.50;9.00;;;14.20;58.40;;;;;;4894804;29;20490;-90
2022/04/11 12:59:30;;;;;;;12.50;8.52;;;14.20;59.60;;;;;;4897280;29;20048;-90